Time;durP1;ratioP1;P1;durP2;ratioP2;P2;SDS_P1;SDS_P2;PMS_P1;PMS_P2;Temp;Humidity;BMP_temperature;BMP_pressure;BME280_temperature;BME280_humidity;BME280_pressure;Samples;Min_cycle;Max_cycle;Signal;HPM_P1;HPM_P2
2021/05/21 00:02:25;;;;;;;0.10;0.10;;;;;;;;;;5054304;28;20397;-83
2021/05/21 00:04:51;;;;;;;0.10;0.10;;;;;;;;;;5071136;28;20040;-83
2021/05/21 00:07:17;;;;;;;0.10;0.10;;;;;;;;;;5054538;28;20101;-83
2021/05/21 00:09:43;;;;;;;0.10;0.10;;;;;;;;;;5071135;28;20036;-83
2021/05/21 00:12:09;;;;;;;0.10;0.10;;;;;;;;;;5072173;28;20044;-83
2021/05/21 00:14:35;;;;;;;0.10;0.10;;;;;;;;;;5070953;28;20098;-83
2021/05/21 00:17:01;;;;;;;0.10;0.10;;;;;;;;;;5070714;28;20039;-83
2021/05/21 00:19:27;;;;;;;0.10;0.10;;;;;;;;;;5071028;28;20037;-83
2021/05/21 00:21:53;;;;;;;0.10;0.10;;;;;;;;;;5070879;28;20063;-83
2021/05/21 00:24:19;;;;;;;0.10;0.10;;;;;;;;;;5071029;28;20479;-83
2021/05/21 00:26:48;;;;;;;0.10;0.10;;;;;;;;;;5070938;28;20036;-83
2021/05/21 00:29:14;;;;;;;0.10;0.10;;;;;;;;;;5054483;28;20372;-84
2021/05/21 00:31:40;;;;;;;0.10;0.10;;;;;;;;;;5070706;28;20047;-83
2021/05/21 00:34:06;;;;;;;0.10;0.10;;;;;;;;;;5070830;28;20045;-83
2021/05/21 00:36:32;;;;;;;0.20;0.20;;;;;;;;;;5072694;28;20041;-84
2021/05/21 00:38:58;;;;;;;0.10;0.10;;;;;;;;;;5058201;28;20128;-83
2021/05/21 00:41:25;;;;;;;0.10;0.10;;;;;;;;;;5058278;28;20041;-83
2021/05/21 00:43:52;;;;;;;0.10;0.10;;;;;;;;;;5075891;28;20051;-83
2021/05/21 00:46:18;;;;;;;0.10;0.10;;;;;;;;;;5074643;28;20036;-83
2021/05/21 00:48:45;;;;;;;0.10;0.10;;;;;;;;;;5058409;28;20045;-83
2021/05/21 00:51:11;;;;;;;0.10;0.10;;;;;;;;;;5074618;28;20458;-83
2021/05/21 00:53:38;;;;;;;0.10;0.10;;;;;;;;;;5075754;28;20058;-83
2021/05/21 00:56:04;;;;;;;0.10;0.10;;;;;;;;;;5074468;28;20526;-83
2021/05/21 00:58:30;;;;;;;0.10;0.10;;;;;;;;;;5075495;28;20040;-83
2021/05/21 01:00:56;;;;;;;0.20;0.20;;;;;;;;;;5074318;28;20041;-83
2021/05/21 01:03:23;;;;;;;0.10;0.10;;;;;;;;;;5074269;28;20078;-83
2021/05/21 01:05:49;;;;;;;0.10;0.10;;;;;;;;;;5074484;28;20095;-83
2021/05/21 01:08:15;;;;;;;0.10;0.10;;;;;;;;;;5074245;28;20419;-83
2021/05/21 01:10:41;;;;;;;0.10;0.10;;;;;;;;;;5074257;28;20348;-83
2021/05/21 01:13:08;;;;;;;0.10;0.10;;;;;;;;;;5074120;28;20037;-84
2021/05/21 01:15:37;;;;;;;0.10;0.10;;;;;;;;;;5074065;28;20036;-84
2021/05/21 01:18:04;;;;;;;0.10;0.10;;;;;;;;;;5057406;28;20044;-84
2021/05/21 01:20:30;;;;;;;0.10;0.10;;;;;;;;;;5075072;28;20036;-83
2021/05/21 01:22:57;;;;;;;0.10;0.10;;;;;;;;;;5073968;28;20056;-84
2021/05/21 01:25:23;;;;;;;0.10;0.10;;;;;;;;;;5075116;28;20395;-83
2021/05/21 01:27:49;;;;;;;0.10;0.10;;;;;;;;;;5073797;28;20037;-83
2021/05/21 01:30:15;;;;;;;0.10;0.10;;;;;;;;;;5057205;28;20045;-83
2021/05/21 01:32:42;;;;;;;0.10;0.10;;;;;;;;;;5057478;28;20063;-83
2021/05/21 01:35:08;;;;;;;0.10;0.10;;;;;;;;;;5073678;28;20115;-82
2021/05/21 01:37:34;;;;;;;0.10;0.10;;;;;;;;;;5073445;28;20048;-83
2021/05/21 01:40:00;;;;;;;0.10;0.10;;;;;;;;;;5073620;28;20120;-83
2021/05/21 01:42:26;;;;;;;0.10;0.10;;;;;;;;;;5073463;28;20041;-83
2021/05/21 01:44:55;;;;;;;0.10;0.10;;;;;;;;;;5073723;28;20063;-82
2021/05/21 01:47:21;;;;;;;0.10;0.10;;;;;;;;;;5074574;28;20544;-82
2021/05/21 01:49:49;;;;;;;0.10;0.10;;;;;;;;;;5073669;28;20047;-83
2021/05/21 01:52:15;;;;;;;0.10;0.10;;;;;;;;;;5073385;28;20484;-83
2021/05/21 01:54:41;;;;;;;0.10;0.10;;;;;;;;;;5073369;28;20547;-83
2021/05/21 01:57:07;;;;;;;0.10;0.10;;;;;;;;;;5074273;28;20037;-84
2021/05/21 01:59:33;;;;;;;0.20;0.20;;;;;;;;;;5056741;28;20120;-83
2021/05/21 02:01:59;;;;;;;0.10;0.10;;;;;;;;;;5073146;28;20535;-83
2021/05/21 02:04:35;;;;;;;0.10;0.10;;;;;;;;;;5073233;28;20041;-83
2021/05/21 02:07:01;;;;;;;0.10;0.10;;;;;;;;;;5073105;28;20036;-82
2021/05/21 02:09:27;;;;;;;0.10;0.10;;;;;;;;;;5056372;28;20041;-83
2021/05/21 02:11:53;;;;;;;0.10;0.10;;;;;;;;;;5073182;28;20511;-82
2021/05/21 02:14:19;;;;;;;0.10;0.10;;;;;;;;;;5073050;28;20041;-82
2021/05/21 02:16:45;;;;;;;0.10;0.10;;;;;;;;;;5074125;28;20204;-82
2021/05/21 02:19:12;;;;;;;0.10;0.10;;;;;;;;;;5074087;28;20048;-83
2021/05/21 02:21:42;;;;;;;0.10;0.10;;;;;;;;;;5072807;28;20032;-82
2021/05/21 02:24:08;;;;;;;0.17;0.17;;;;;;;;;;5056724;28;20103;-82
2021/05/21 02:26:35;;;;;;;0.10;0.10;;;;;;;;;;5072741;28;20040;-81
2021/05/21 02:29:01;;;;;;;0.10;0.10;;;;;;;;;;5072824;28;20037;-82
2021/05/21 02:31:27;;;;;;;0.20;0.20;;;;;;;;;;5072622;28;20049;-82
2021/05/21 02:33:53;;;;;;;0.10;0.10;;;;;;;;;;5073934;28;20456;-82
2021/05/21 02:36:19;;;;;;;0.10;0.10;;;;;;;;;;5072564;28;20033;-82
2021/05/21 02:38:45;;;;;;;0.10;0.10;;;;;;;;;;5072299;28;20094;-82
2021/05/21 02:41:11;;;;;;;0.10;0.10;;;;;;;;;;5072457;28;20504;-82
2021/05/21 02:43:37;;;;;;;0.10;0.10;;;;;;;;;;5073598;28;20395;-82
2021/05/21 02:46:03;;;;;;;0.10;0.10;;;;;;;;;;5073473;28;20116;-82
2021/05/21 02:48:30;;;;;;;0.10;0.10;;;;;;;;;;5073572;28;20040;-82
2021/05/21 02:50:56;;;;;;;0.17;0.17;;;;;;;;;;5072446;28;20044;-82
2021/05/21 02:53:22;;;;;;;0.20;0.20;;;;;;;;;;5073540;28;20048;-82
2021/05/21 02:55:48;;;;;;;0.10;0.10;;;;;;;;;;5072166;28;20067;-82
2021/05/21 02:58:14;;;;;;;0.10;0.10;;;;;;;;;;5072838;28;20052;-82
2021/05/21 03:00:40;;;;;;;0.22;0.22;;;;;;;;;;5071974;28;20392;-82
2021/05/21 03:03:06;;;;;;;0.10;0.10;;;;;;;;;;5073289;28;20040;-81
2021/05/21 03:05:32;;;;;;;0.13;0.13;;;;;;;;;;5055575;28;20037;-83
2021/05/21 03:07:58;;;;;;;0.20;0.20;;;;;;;;;;5071837;28;20040;-83
2021/05/21 03:10:25;;;;;;;0.10;0.10;;;;;;;;;;5072101;28;20090;-83
2021/05/21 03:12:51;;;;;;;0.10;0.10;;;;;;;;;;5071890;28;20033;-83
2021/05/21 03:15:17;;;;;;;0.10;0.10;;;;;;;;;;5072987;28;20043;-83
2021/05/21 03:17:46;;;;;;;0.10;0.10;;;;;;;;;;5072874;28;20040;-82
2021/05/21 03:20:13;;;;;;;0.10;0.10;;;;;;;;;;5071739;28;20032;-83
2021/05/21 03:22:39;;;;;;;0.63;0.63;;;;;;;;;;5071491;28;20139;-83
2021/05/21 03:25:05;;;;;;;0.10;0.10;;;;;;;;;;5072868;28;20072;-83
2021/05/21 03:27:31;;;;;;;0.10;0.10;;;;;;;;;;5071481;28;20036;-82
2021/05/21 03:29:58;;;;;;;0.22;0.15;;;;;;;;;;5071670;28;20043;-82
2021/05/21 03:32:24;;;;;;;0.10;0.10;;;;;;;;;;5071521;28;20126;-81
2021/05/21 03:34:50;;;;;;;0.10;0.10;;;;;;;;;;5071408;28;20043;-82
2021/05/21 03:37:16;;;;;;;0.10;0.10;;;;;;;;;;5071190;28;20040;-81
2021/05/21 03:39:42;;;;;;;0.10;0.10;;;;;;;;;;5071461;28;20430;-82
2021/05/21 03:42:08;;;;;;;0.10;0.10;;;;;;;;;;5071318;28;20037;-82
2021/05/21 03:44:34;;;;;;;0.10;0.10;;;;;;;;;;5071285;28;20051;-82
2021/05/21 03:47:03;;;;;;;0.10;0.10;;;;;;;;;;5071299;28;20119;-82
2021/05/21 03:49:30;;;;;;;0.10;0.10;;;;;;;;;;5072406;28;20391;-82
2021/05/21 03:51:56;;;;;;;0.10;0.10;;;;;;;;;;5071455;28;20044;-83
2021/05/21 03:54:23;;;;;;;0.10;0.10;;;;;;;;;;5071296;28;20139;-83
2021/05/21 03:56:49;;;;;;;0.10;0.10;;;;;;;;;;5071193;28;20098;-83
2021/05/21 03:59:15;;;;;;;0.10;0.10;;;;;;;;;;5071150;28;20040;-83
2021/05/21 04:01:41;;;;;;;0.10;0.10;;;;;;;;;;5071041;28;20124;-83
2021/05/21 04:04:07;;;;;;;0.10;0.10;;;;;;;;;;5037841;28;20040;-83
2021/05/21 04:06:34;;;;;;;0.10;0.10;;;;;;;;;;5071063;28;20047;-82
2021/05/21 04:09:06;;;;;;;0.10;0.10;;;;;;;;;;5071156;28;20032;-82
2021/05/21 04:11:32;;;;;;;0.10;0.10;;;;;;;;;;5053929;28;20056;-82
2021/05/21 04:13:58;;;;;;;0.10;0.10;;;;;;;;;;5072281;28;20036;-83
2021/05/21 04:16:24;;;;;;;0.10;0.10;;;;;;;;;;5072136;28;20433;-83
2021/05/21 04:18:50;;;;;;;0.10;0.10;;;;;;;;;;5070894;28;20123;-83
2021/05/21 04:21:18;;;;;;;0.10;0.10;;;;;;;;;;5070839;28;20391;-84
2021/05/21 04:23:44;;;;;;;0.10;0.10;;;;;;;;;;5071118;28;20044;-83
2021/05/21 04:26:10;;;;;;;0.10;0.10;;;;;;;;;;5070817;28;20119;-82
2021/05/21 04:28:36;;;;;;;0.10;0.10;;;;;;;;;;5072009;28;20433;-81
2021/05/21 04:31:02;;;;;;;0.10;0.10;;;;;;;;;;5070944;28;20476;-83
2021/05/21 04:33:28;;;;;;;0.10;0.10;;;;;;;;;;5072018;28;20048;-82
2021/05/21 04:35:54;;;;;;;0.10;0.10;;;;;;;;;;5071952;28;20037;-82
2021/05/21 04:38:20;;;;;;;0.10;0.10;;;;;;;;;;5070485;28;20076;-82
2021/05/21 04:40:46;;;;;;;0.10;0.10;;;;;;;;;;5071841;28;20051;-81
2021/05/21 04:43:12;;;;;;;0.10;0.10;;;;;;;;;;5070776;28;20404;-82
2021/05/21 04:45:38;;;;;;;1.17;1.15;;;;;;;;;;5071795;28;20036;-82
2021/05/21 04:48:05;;;;;;;0.10;0.10;;;;;;;;;;5071689;28;20051;-82
2021/05/21 04:50:31;;;;;;;0.10;0.10;;;;;;;;;;5071084;28;20128;-82
2021/05/21 04:52:58;;;;;;;0.10;0.10;;;;;;;;;;5070638;28;20045;-83
2021/05/21 04:55:24;;;;;;;0.10;0.10;;;;;;;;;;5070596;28;20040;-83
2021/05/21 04:57:51;;;;;;;0.10;0.10;;;;;;;;;;5071717;28;20040;-83
2021/05/21 05:00:17;;;;;;;0.10;0.10;;;;;;;;;;5071650;28;20158;-83
2021/05/21 05:02:44;;;;;;;0.10;0.10;;;;;;;;;;5071646;28;20071;-83
2021/05/21 05:05:10;;;;;;;0.10;0.10;;;;;;;;;;5070523;28;20041;-84
2021/05/21 05:07:38;;;;;;;0.10;0.10;;;;;;;;;;5070296;28;20052;-83
2021/05/21 05:10:05;;;;;;;0.10;0.10;;;;;;;;;;5054016;28;20430;-84
2021/05/21 05:12:31;;;;;;;0.10;0.10;;;;;;;;;;5070536;28;20036;-83
2021/05/21 05:14:57;;;;;;;0.10;0.10;;;;;;;;;;5071431;28;20032;-83
2021/05/21 05:17:23;;;;;;;0.10;0.10;;;;;;;;;;5070272;28;20072;-82
2021/05/21 05:19:49;;;;;;;0.10;0.10;;;;;;;;;;5070367;28;20036;-83
2021/05/21 05:22:15;;;;;;;0.10;0.10;;;;;;;;;;5072878;28;20036;-84
2021/05/21 05:24:41;;;;;;;0.10;0.10;;;;;;;;;;5074092;28;20040;-84
2021/05/21 05:27:07;;;;;;;0.10;0.10;;;;;;;;;;5073975;28;20215;-83
2021/05/21 05:29:34;;;;;;;0.10;0.10;;;;;;;;;;5073878;28;20058;-83
2021/05/21 05:32:01;;;;;;;0.10;0.10;;;;;;;;;;5073794;28;20041;-84
2021/05/21 05:34:27;;;;;;;0.10;0.10;;;;;;;;;;5073721;28;20040;-83
2021/05/21 05:36:54;;;;;;;0.10;0.10;;;;;;;;;;5073553;28;20140;-83
2021/05/21 05:39:20;;;;;;;0.10;0.10;;;;;;;;;;5074951;28;20055;-83
2021/05/21 05:41:49;;;;;;;0.10;0.10;;;;;;;;;;5074785;28;20036;-83
2021/05/21 05:44:20;;;;;;;0.10;0.10;;;;;;;;;;5073780;28;20045;-83
2021/05/21 05:46:46;;;;;;;0.10;0.10;;;;;;;;;;5073539;28;20072;-83
2021/05/21 05:49:12;;;;;;;0.10;0.10;;;;;;;;;;5074812;28;20089;-87
2021/05/21 05:51:40;;;;;;;0.10;0.10;;;;;;;;;;5074793;28;20531;-86
2021/05/21 05:54:07;;;;;;;0.10;0.10;;;;;;;;;;5074629;28;20056;-86
2021/05/21 05:56:33;;;;;;;0.10;0.10;;;;;;;;;;5073465;28;20037;-86
2021/05/21 05:58:59;;;;;;;0.10;0.10;;;;;;;;;;5073371;28;20037;-86
2021/05/21 06:01:25;;;;;;;0.10;0.10;;;;;;;;;;5073322;28;20040;-85
2021/05/21 06:03:51;;;;;;;0.10;0.10;;;;;;;;;;5073286;28;20116;-84
2021/05/21 06:06:18;;;;;;;0.10;0.10;;;;;;;;;;5056632;28;20041;-85
2021/05/21 06:08:44;;;;;;;0.10;0.10;;;;;;;;;;5073241;28;20425;-86
2021/05/21 06:11:10;;;;;;;0.10;0.10;;;;;;;;;;5073251;28;20055;-85
2021/05/21 06:13:36;;;;;;;0.10;0.10;;;;;;;;;;5073330;28;20121;-84
2021/05/21 06:16:02;;;;;;;0.10;0.10;;;;;;;;;;5056541;28;20033;-85
2021/05/21 06:18:28;;;;;;;0.15;0.15;;;;;;;;;;5056462;28;20178;-84
2021/05/21 06:20:54;;;;;;;0.10;0.10;;;;;;;;;;5072903;28;20113;-84
2021/05/21 06:23:20;;;;;;;0.10;0.10;;;;;;;;;;5074156;28;20036;-84
2021/05/21 06:28:13;;;;;;;0.10;0.10;;;;;;;;;;5074010;28;20596;-84
2021/05/21 06:30:39;;;;;;;0.10;0.10;;;;;;;;;;5072928;28;20032;-84
2021/05/21 06:33:05;;;;;;;0.10;0.10;;;;;;;;;;5072307;28;20037;-85
2021/05/21 06:35:34;;;;;;;0.10;0.10;;;;;;;;;;5073670;28;20038;-85
2021/05/21 06:38:01;;;;;;;0.10;0.10;;;;;;;;;;5072466;28;20064;-84
2021/05/21 06:40:27;;;;;;;0.20;0.20;;;;;;;;;;5072360;28;20060;-84
2021/05/21 06:42:53;;;;;;;0.10;0.10;;;;;;;;;;5072536;28;20040;-86
2021/05/21 06:45:21;;;;;;;0.10;0.10;;;;;;;;;;5055713;28;20040;-85
2021/05/21 06:47:47;;;;;;;0.10;0.10;;;;;;;;;;5073510;28;20040;-85
2021/05/21 06:50:13;;;;;;;0.30;0.30;;;;;;;;;;5072341;28;20040;-85
2021/05/21 06:52:39;;;;;;;0.10;0.10;;;;;;;;;;5072453;28;20040;-85
2021/05/21 06:55:06;;;;;;;0.10;0.10;;;;;;;;;;5072394;28;20114;-85
2021/05/21 06:57:32;;;;;;;0.10;0.10;;;;;;;;;;5073337;28;20036;-85
2021/05/21 06:59:58;;;;;;;0.10;0.10;;;;;;;;;;5072201;28;20042;-84
2021/05/21 07:02:26;;;;;;;0.10;0.10;;;;;;;;;;5073220;28;20070;-85
2021/05/21 07:04:52;;;;;;;0.10;0.10;;;;;;;;;;5072119;28;20040;-84
2021/05/21 07:07:18;;;;;;;0.10;0.10;;;;;;;;;;5071913;28;20098;-84
2021/05/21 07:09:44;;;;;;;0.10;0.10;;;;;;;;;;5073065;28;20032;-84
2021/05/21 07:12:11;;;;;;;0.10;0.10;;;;;;;;;;5071931;28;20050;-83
2021/05/21 07:14:37;;;;;;;0.10;0.10;;;;;;;;;;5073039;28;20041;-84
2021/05/21 07:17:03;;;;;;;0.10;0.10;;;;;;;;;;5072651;28;20503;-84
2021/05/21 07:19:30;;;;;;;0.10;0.10;;;;;;;;;;5072898;28;20036;-84
2021/05/21 07:21:56;;;;;;;0.40;0.40;;;;;;;;;;5072623;28;20036;-84
2021/05/21 07:24:22;;;;;;;0.10;0.10;;;;;;;;;;5071564;28;20081;-84
2021/05/21 07:26:48;;;;;;;0.10;0.10;;;;;;;;;;5072612;28;20043;-84
2021/05/21 07:29:14;;;;;;;0.10;0.10;;;;;;;;;;5054886;28;20036;-84
2021/05/21 07:31:40;;;;;;;0.20;0.20;;;;;;;;;;5055042;28;20503;-84
2021/05/21 07:34:06;;;;;;;0.10;0.10;;;;;;;;;;5054993;28;20472;-84
2021/05/21 07:36:34;;;;;;;0.10;0.10;;;;;;;;;;5072564;28;20426;-87
2021/05/21 07:39:00;;;;;;;0.10;0.10;;;;;;;;;;5055126;28;20095;-87
2021/05/21 07:41:27;;;;;;;0.10;0.10;;;;;;;;;;5071311;28;20060;-84
2021/05/21 07:43:53;;;;;;;0.10;0.10;;;;;;;;;;5071332;28;20487;-88
2021/05/21 07:46:20;;;;;;;0.10;0.10;;;;;;;;;;5071085;28;20029;-85
2021/05/21 07:48:46;;;;;;;0.10;0.10;;;;;;;;;;5054683;28;20086;-84
2021/05/21 07:51:12;;;;;;;0.10;0.10;;;;;;;;;;5071350;28;20044;-84
2021/05/21 07:53:38;;;;;;;0.10;0.10;;;;;;;;;;5072589;28;20531;-85
2021/05/21 07:56:06;;;;;;;0.30;0.30;;;;;;;;;;5072389;28;20439;-85
2021/05/21 07:58:32;;;;;;;0.10;0.10;;;;;;;;;;5071996;28;20067;-84
2021/05/21 08:00:58;;;;;;;0.10;0.10;;;;;;;;;;5070874;28;20074;-85
2021/05/21 08:03:24;;;;;;;0.10;0.10;;;;;;;;;;5071019;28;20109;-85
2021/05/21 08:05:52;;;;;;;0.10;0.10;;;;;;;;;;5070854;28;20464;-84
2021/05/21 08:08:21;;;;;;;0.10;0.10;;;;;;;;;;5070877;28;20115;-84
2021/05/21 08:10:48;;;;;;;0.10;0.10;;;;;;;;;;5054791;28;20068;-84
2021/05/21 08:13:14;;;;;;;0.10;0.10;;;;;;;;;;5054498;28;20040;-83
2021/05/21 08:15:40;;;;;;;0.10;0.10;;;;;;;;;;5071058;28;20037;-87
2021/05/21 08:18:06;;;;;;;0.10;0.10;;;;;;;;;;5070872;28;20090;-84
2021/05/21 08:20:32;;;;;;;0.85;0.68;;;;;;;;;;5070767;28;20036;-84
2021/05/21 08:22:58;;;;;;;0.10;0.10;;;;;;;;;;5070934;28;20036;-84
2021/05/21 08:25:24;;;;;;;0.10;0.10;;;;;;;;;;5070846;28;20435;-85
2021/05/21 08:27:53;;;;;;;0.10;0.10;;;;;;;;;;5070925;28;20468;-85
2021/05/21 08:30:19;;;;;;;0.10;0.10;;;;;;;;;;5070800;28;20086;-84
2021/05/21 08:32:48;;;;;;;0.25;0.25;;;;;;;;;;5070812;28;20047;-83
2021/05/21 08:35:14;;;;;;;0.10;0.10;;;;;;;;;;5070947;28;20170;-84
2021/05/21 08:37:40;;;;;;;0.10;0.10;;;;;;;;;;5070554;28;20513;-84
2021/05/21 08:40:07;;;;;;;0.10;0.10;;;;;;;;;;5070750;28;20349;-84
2021/05/21 08:42:36;;;;;;;0.10;0.10;;;;;;;;;;5070707;28;20403;-84
2021/05/21 08:45:02;;;;;;;0.10;0.10;;;;;;;;;;5070692;28;20044;-88
2021/05/21 08:47:31;;;;;;;0.30;0.30;;;;;;;;;;5070543;28;20413;-85
2021/05/21 08:50:01;;;;;;;0.10;0.10;;;;;;;;;;5070585;28;20539;-85
2021/05/21 08:52:27;;;;;;;0.10;0.10;;;;;;;;;;5071227;28;20040;-85
2021/05/21 08:54:53;;;;;;;0.10;0.10;;;;;;;;;;5069567;28;20051;-84
2021/05/21 08:57:21;;;;;;;0.10;0.10;;;;;;;;;;5070994;28;20052;-84
2021/05/21 08:59:47;;;;;;;0.10;0.10;;;;;;;;;;5074522;28;20442;-84
2021/05/21 09:02:17;;;;;;;0.10;0.10;;;;;;;;;;5074395;28;20097;-85
2021/05/21 09:04:46;;;;;;;0.10;0.10;;;;;;;;;;5056984;28;20452;-84
2021/05/21 09:07:22;;;;;;;1.85;0.28;;;;;;;;;;5074149;28;20040;-84
2021/05/21 09:09:48;;;;;;;0.10;0.10;;;;;;;;;;5057680;28;20503;-84
2021/05/21 09:12:15;;;;;;;0.10;0.10;;;;;;;;;;5074272;28;20048;-84
2021/05/21 09:14:41;;;;;;;0.45;0.45;;;;;;;;;;5074105;28;20040;-84
2021/05/21 09:17:17;;;;;;;0.10;0.10;;;;;;;;;;5074030;28;20546;-84
2021/05/21 09:19:46;;;;;;;0.10;0.10;;;;;;;;;;5074208;28;20444;-84
2021/05/21 09:22:12;;;;;;;0.10;0.10;;;;;;;;;;5073921;28;20033;-84
2021/05/21 09:24:48;;;;;;;0.10;0.10;;;;;;;;;;5073619;28;20055;-84
2021/05/21 09:27:15;;;;;;;0.10;0.10;;;;;;;;;;5057877;28;20068;-84
2021/05/21 09:29:46;;;;;;;0.10;0.10;;;;;;;;;;5075136;28;20492;-86
2021/05/21 09:32:21;;;;;;;0.15;0.15;;;;;;;;;;5073947;28;20400;-85
2021/05/21 09:34:57;;;;;;;0.10;0.10;;;;;;;;;;5073878;28;20131;-86
2021/05/21 09:37:27;;;;;;;0.17;0.17;;;;;;;;;;5056943;28;20150;-84
2021/05/21 09:40:06;;;;;;;0.10;0.10;;;;;;;;;;5073751;28;20032;-84
2021/05/21 09:42:50;;;;;;;0.10;0.10;;;;;;;;;;5074841;28;20041;-84
2021/05/21 09:45:27;;;;;;;0.20;0.20;;;;;;;;;;5073804;28;20448;-85
2021/05/21 09:47:53;;;;;;;0.10;0.10;;;;;;;;;;5073417;28;20547;-85
2021/05/21 09:50:20;;;;;;;0.10;0.10;;;;;;;;;;5074971;28;20058;-85
2021/05/21 09:52:46;;;;;;;0.10;0.10;;;;;;;;;;5073620;28;20557;-85
2021/05/21 09:55:12;;;;;;;0.17;0.17;;;;;;;;;;5070308;28;20060;-86
2021/05/21 09:57:40;;;;;;;0.20;0.20;;;;;;;;;;5073336;28;20090;-85
2021/05/21 10:00:07;;;;;;;0.10;0.10;;;;;;;;;;5073350;28;20041;-85
2021/05/21 10:02:33;;;;;;;0.10;0.10;;;;;;;;;;5072576;28;21079;-85
2021/05/21 10:05:00;;;;;;;0.10;0.10;;;;;;;;;;5056446;28;20036;-85
2021/05/21 10:07:26;;;;;;;0.10;0.10;;;;;;;;;;5056455;28;20128;-85
2021/05/21 10:09:52;;;;;;;0.20;0.20;;;;;;;;;;5056618;28;20068;-86
2021/05/21 10:12:18;;;;;;;0.10;0.10;;;;;;;;;;5074515;28;20040;-86
2021/05/21 10:14:51;;;;;;;0.30;0.30;;;;;;;;;;5056675;28;20067;-85
2021/05/21 10:17:18;;;;;;;0.10;0.10;;;;;;;;;;5073225;28;20033;-84
2021/05/21 10:19:45;;;;;;;0.13;0.13;;;;;;;;;;5074064;28;20036;-84
2021/05/21 10:22:12;;;;;;;0.28;0.28;;;;;;;;;;5072814;28;20097;-85
2021/05/21 10:24:40;;;;;;;0.88;0.40;;;;;;;;;;5072880;28;20048;-86
2021/05/21 10:27:08;;;;;;;0.15;0.15;;;;;;;;;;5056403;28;20388;-84
2021/05/21 10:29:34;;;;;;;0.22;0.22;;;;;;;;;;5072605;28;20250;-84
2021/05/21 10:32:15;;;;;;;0.10;0.10;;;;;;;;;;5072700;28;20086;-84
2021/05/21 10:34:42;;;;;;;0.10;0.10;;;;;;;;;;5072676;28;20040;-84
2021/05/21 10:37:24;;;;;;;0.10;0.10;;;;;;;;;;5072377;28;20053;-84
2021/05/21 10:39:50;;;;;;;;;;;;;;;;;;5074213;28;20033;-84
2021/05/21 10:42:22;;;;;;;0.10;0.10;;;;;;;;;;5073677;28;19927;-84
2021/05/21 10:44:49;;;;;;;0.10;0.10;;;;;;;;;;5072616;28;20396;-84
2021/05/21 10:47:25;;;;;;;0.10;0.10;;;;;;;;;;5055742;28;20091;-84
2021/05/21 10:49:51;;;;;;;0.10;0.10;;;;;;;;;;5072575;28;20107;-84
2021/05/21 10:52:17;;;;;;;0.10;0.10;;;;;;;;;;5072277;28;20131;-84
2021/05/21 10:54:44;;;;;;;0.10;0.10;;;;;;;;;;5072157;28;20045;-85
2021/05/21 10:57:20;;;;;;;0.10;0.10;;;;;;;;;;5055640;28;20373;-84
2021/05/21 11:00:00;;;;;;;0.10;0.10;;;;;;;;;;5073342;28;20036;-85
2021/05/21 11:02:27;;;;;;;0.10;0.10;;;;;;;;;;5072104;28;20373;-85
2021/05/21 11:05:28;;;;;;;0.10;0.10;;;;;;;;;;5071768;28;20511;-86
2021/05/21 11:08:13;;;;;;;0.10;0.10;;;;;;;;;;5072978;28;20048;-85
2021/05/21 11:11:13;;;;;;;0.10;0.10;;;;;;;;;;5045512;28;20055;-86
2021/05/21 11:13:39;;;;;;;0.10;0.10;;;;;;;;;;5054374;28;20194;-86
2021/05/21 11:16:11;;;;;;;0.10;0.10;;;;;;;;;;5054323;28;20068;-85
2021/05/21 11:18:46;;;;;;;0.10;0.10;;;;;;;;;;5054660;28;20040;-85
2021/05/21 11:21:18;;;;;;;0.10;0.10;;;;;;;;;;5053917;28;20525;-84
2021/05/21 11:23:46;;;;;;;0.10;0.10;;;;;;;;;;5053411;28;20049;-84
2021/05/21 11:26:13;;;;;;;0.10;0.10;;;;;;;;;;5070492;28;20052;-86
2021/05/21 11:28:43;;;;;;;0.10;0.10;;;;;;;;;;5056081;28;20513;-85
2021/05/21 11:31:12;;;;;;;0.10;0.10;;;;;;;;;;5071663;28;20036;-85
2021/05/21 11:33:38;;;;;;;0.10;0.10;;;;;;;;;;5071409;28;20061;-85
2021/05/21 11:36:05;;;;;;;0.10;0.10;;;;;;;;;;5067708;28;20036;-85
2021/05/21 11:38:31;;;;;;;0.10;0.10;;;;;;;;;;5069783;28;20044;-84
2021/05/21 11:40:57;;;;;;;0.10;0.10;;;;;;;;;;5069905;28;20479;-83
2021/05/21 11:43:29;;;;;;;0.10;0.10;;;;;;;;;;5072378;28;20051;-83
2021/05/21 11:45:56;;;;;;;0.10;0.10;;;;;;;;;;5071062;28;20404;-83
2021/05/21 11:48:34;;;;;;;0.10;0.10;;;;;;;;;;5071306;28;20036;-84
2021/05/21 11:51:01;;;;;;;0.10;0.10;;;;;;;;;;5072315;28;20494;-83
2021/05/21 11:53:30;;;;;;;0.10;0.10;;;;;;;;;;5054950;28;20029;-86
2021/05/21 11:55:57;;;;;;;0.10;0.10;;;;;;;;;;5054522;28;20045;-84
2021/05/21 11:58:23;;;;;;;0.10;0.10;;;;;;;;;;5071199;28;20037;-84
2021/05/21 12:01:00;;;;;;;0.10;0.10;;;;;;;;;;5071151;28;20043;-85
2021/05/21 12:03:39;;;;;;;0.10;0.10;;;;;;;;;;5070999;28;20048;-83
2021/05/21 12:06:06;;;;;;;0.10;0.10;;;;;;;;;;5072184;28;20480;-83
2021/05/21 12:08:32;;;;;;;0.10;0.10;;;;;;;;;;5070942;28;20476;-84
2021/05/21 12:10:58;;;;;;;0.15;0.15;;;;;;;;;;5054464;28;20037;-84
2021/05/21 12:13:29;;;;;;;0.10;0.10;;;;;;;;;;5072422;28;20105;-87
2021/05/21 12:16:07;;;;;;;0.57;0.10;;;;;;;;;;5072228;28;20098;-84
2021/05/21 12:18:33;;;;;;;0.10;0.10;;;;;;;;;;5071040;28;20036;-86
2021/05/21 12:20:59;;;;;;;0.10;0.10;;;;;;;;;;5070895;28;20115;-84
2021/05/21 12:23:34;;;;;;;0.10;0.10;;;;;;;;;;5071036;28;20044;-85
2021/05/21 12:26:00;;;;;;;0.10;0.10;;;;;;;;;;5070822;28;20087;-84
2021/05/21 12:28:26;;;;;;;0.10;0.10;;;;;;;;;;5054183;28;20476;-84
2021/05/21 12:30:52;;;;;;;0.10;0.10;;;;;;;;;;5072083;28;20127;-85
2021/05/21 12:33:18;;;;;;;0.17;0.17;;;;;;;;;;5057466;28;20036;-85
2021/05/21 12:35:44;;;;;;;0.68;0.15;;;;;;;;;;5074893;28;20158;-85
2021/05/21 12:38:11;;;;;;;0.10;0.10;;;;;;;;;;5074634;28;20131;-86
2021/05/21 12:40:49;;;;;;;0.10;0.10;;;;;;;;;;5074723;28;20048;-84
2021/05/21 12:43:16;;;;;;;0.10;0.10;;;;;;;;;;5075060;28;20061;-85
2021/05/21 12:45:55;;;;;;;0.10;0.10;;;;;;;;;;5074755;28;20032;-86
2021/05/21 12:48:30;;;;;;;0.20;0.20;;;;;;;;;;5075747;28;20037;-86
2021/05/21 12:50:56;;;;;;;0.10;0.10;;;;;;;;;;5041501;28;20455;-86
2021/05/21 12:53:22;;;;;;;0.10;0.10;;;;;;;;;;5057823;28;20395;-87
2021/05/21 12:55:48;;;;;;;0.10;0.10;;;;;;;;;;5074487;28;20044;-86
2021/05/21 12:58:15;;;;;;;0.10;0.10;;;;;;;;;;5074384;28;20032;-84
2021/05/21 13:00:41;;;;;;;0.10;0.10;;;;;;;;;;5075518;28;20040;-86
2021/05/21 13:03:09;;;;;;;0.17;0.17;;;;;;;;;;5057426;28;20053;-84
2021/05/21 13:05:38;;;;;;;0.10;0.10;;;;;;;;;;5074276;28;20068;-84
2021/05/21 13:08:05;;;;;;;0.10;0.10;;;;;;;;;;5057313;28;20040;-84
2021/05/21 13:10:36;;;;;;;0.10;0.10;;;;;;;;;;5074087;28;20483;-84
2021/05/21 13:13:02;;;;;;;0.20;0.20;;;;;;;;;;5075502;28;20045;-83
2021/05/21 13:15:29;;;;;;;0.10;0.10;;;;;;;;;;5074168;28;20115;-83
2021/05/21 13:17:56;;;;;;;0.30;0.30;;;;;;;;;;5074145;28;20059;-83
2021/05/21 13:20:23;;;;;;;0.10;0.10;;;;;;;;;;5075124;28;20040;-83
2021/05/21 13:22:50;;;;;;;0.10;0.10;;;;;;;;;;5073862;28;20040;-84
2021/05/21 13:25:16;;;;;;;0.10;0.10;;;;;;;;;;5074017;28;20111;-83
2021/05/21 13:27:47;;;;;;;0.20;0.20;;;;;;;;;;5073782;28;20128;-83
2021/05/21 13:30:13;;;;;;;0.10;0.10;;;;;;;;;;5073867;28;20181;-83
2021/05/21 13:32:41;;;;;;;0.10;0.10;;;;;;;;;;5040825;28;20510;-83
2021/05/21 13:35:07;;;;;;;0.10;0.10;;;;;;;;;;5074755;28;20108;-83
2021/05/21 13:37:33;;;;;;;0.10;0.10;;;;;;;;;;5073379;28;20064;-83
2021/05/21 13:39:59;;;;;;;0.10;0.10;;;;;;;;;;5073657;28;20093;-84
2021/05/21 13:42:25;;;;;;;0.10;0.10;;;;;;;;;;5074322;28;20044;-86
2021/05/21 13:44:52;;;;;;;0.10;0.10;;;;;;;;;;5073671;28;20583;-84
2021/05/21 13:47:18;;;;;;;0.10;0.10;;;;;;;;;;5073437;28;20043;-84
2021/05/21 13:49:44;;;;;;;0.10;0.10;;;;;;;;;;5073395;28;20044;-84
2021/05/21 13:52:10;;;;;;;0.10;0.10;;;;;;;;;;5073518;28;20127;-84
2021/05/21 13:54:36;;;;;;;0.10;0.10;;;;;;;;;;5056793;28;20086;-84
2021/05/21 13:57:02;;;;;;;0.13;0.13;;;;;;;;;;5073328;28;20071;-85
2021/05/21 13:59:28;;;;;;;0.10;0.10;;;;;;;;;;5056864;28;20547;-84
2021/05/21 14:01:54;;;;;;;0.10;0.10;;;;;;;;;;5073201;28;20072;-84
2021/05/21 14:04:22;;;;;;;0.25;0.25;;;;;;;;;;5073230;28;20101;-86
2021/05/21 14:06:48;;;;;;;0.10;0.10;;;;;;;;;;5073187;28;20044;-83
2021/05/21 14:09:14;;;;;;;0.10;0.10;;;;;;;;;;5073172;28;20119;-83
2021/05/21 14:11:40;;;;;;;0.10;0.10;;;;;;;;;;5073132;28;20075;-83
2021/05/21 14:14:09;;;;;;;0.10;0.10;;;;;;;;;;5073122;28;20036;-84
2021/05/21 14:16:39;;;;;;;0.10;0.10;;;;;;;;;;5072951;28;20064;-89
2021/05/21 14:19:11;;;;;;;0.10;0.10;;;;;;;;;;5040063;28;20045;-87
2021/05/21 14:21:37;;;;;;;;;;;;;;;;;;5073330;28;20028;-87
2021/05/21 14:24:07;;;;;;;0.10;0.10;;;;;;;;;;5057559;28;20033;-88
2021/05/21 14:26:33;;;;;;;0.10;0.10;;;;;;;;;;5072841;28;20112;-84
2021/05/21 14:29:06;;;;;;;0.10;0.10;;;;;;;;;;5072855;28;20032;-84
2021/05/21 14:31:32;;;;;;;0.10;0.10;;;;;;;;;;5069901;28;20045;-84
2021/05/21 14:34:00;;;;;;;0.10;0.10;;;;;;;;;;5089507;28;20037;-87
2021/05/21 14:36:26;;;;;;;0.10;0.10;;;;;;;;;;5072547;28;20499;-89
2021/05/21 14:38:55;;;;;;;0.10;0.10;;;;;;;;;;5072769;28;20734;-84
2021/05/21 14:41:22;;;;;;;0.10;0.10;;;;;;;;;;5088848;28;20047;-84
2021/05/21 14:43:48;;;;;;;0.10;0.10;;;;;;;;;;5072217;28;20435;-84
2021/05/21 14:46:14;;;;;;;0.10;0.10;;;;;;;;;;5068904;28;20068;-84
2021/05/21 14:48:41;;;;;;;0.32;0.32;;;;;;;;;;5053502;28;20040;-84